Time;durP1;ratioP1;P1;durP2;ratioP2;P2;SDS_P1;SDS_P2;PMS_P1;PMS_P2;Temp;Humidity;BMP_temperature;BMP_pressure;BME280_temperature;BME280_humidity;BME280_pressure;Samples;Min_cycle;Max_cycle;Signal;HPM_P1;HPM_P2
2021/12/25 00:00:28;;;;;;;46.67;18.90;;;;;;;4.83;100.00;100206.66;4999746;28;20129;-77
2021/12/25 00:02:54;;;;;;;49.00;19.35;;;;;;;4.77;100.00;100205.19;5001840;28;20069;-77
2021/12/25 00:05:20;;;;;;;50.28;20.73;;;;;;;4.84;100.00;100203.84;5000543;28;20117;-77
2021/12/25 00:07:46;;;;;;;51.97;20.23;;;;;;;4.84;100.00;100200.25;4999377;28;20039;-77
2021/12/25 00:10:11;;;;;;;53.03;20.23;;;;;;;4.77;100.00;100203.38;4995010;28;20034;-77
2021/12/25 00:12:37;;;;;;;57.42;22.60;;;;;;;4.89;100.00;100211.69;5002415;28;20037;-77
2021/12/25 00:15:04;;;;;;;56.90;21.25;;;;;;;4.84;100.00;100208.38;5012665;28;20057;-77
2021/12/25 00:17:29;;;;;;;58.40;21.67;;;;;;;4.79;100.00;100211.41;4994859;28;20669;-77
2021/12/25 00:19:54;;;;;;;58.78;22.88;;;;;;;4.80;100.00;100199.56;5008641;28;20042;-77
2021/12/25 00:22:21;;;;;;;60.13;22.25;;;;;;;4.82;100.00;100207.63;5000636;28;20402;-76
2021/12/25 00:24:48;;;;;;;63.45;22.98;;;;;;;4.70;100.00;100204.72;4994131;28;20030;-77
2021/12/25 00:29:55;;;;;;;61.13;23.30;;;;;;;4.78;100.00;100204.25;5003980;28;20022;-77
2021/12/25 00:34:47;;;;;;;66.68;23.40;;;;;;;4.71;100.00;100201.06;5010455;28;20025;-77
2021/12/25 00:37:12;;;;;;;69.03;23.33;;;;;;;4.77;100.00;100200.66;5010112;28;20429;-77
2021/12/25 00:39:38;;;;;;;67.43;24.52;;;;;;;4.76;100.00;100189.91;5016676;28;20049;-77
2021/12/25 00:42:05;;;;;;;75.90;26.75;;;;;;;4.74;100.00;100197.28;5001729;28;20030;-77
2021/12/25 00:44:32;;;;;;;76.25;25.13;;;;;;;4.73;100.00;100199.13;5008507;28;20146;-77
2021/12/25 00:46:57;;;;;;;71.10;25.27;;;;;;;4.66;100.00;100186.06;4993385;28;20045;-76
2021/12/25 00:49:24;;;;;;;69.38;24.45;;;;;;;4.79;100.00;100195.16;4993586;28;20080;-76
2021/12/25 00:51:49;;;;;;;71.28;25.65;;;;;;;4.63;100.00;100192.56;4994720;28;20041;-76
2021/12/25 00:54:16;;;;;;;76.03;26.92;;;;;;;4.66;100.00;100189.66;5010291;28;20394;-76
2021/12/25 00:56:41;;;;;;;78.38;27.10;;;;;;;4.63;100.00;100191.69;4993461;28;20042;-76
2021/12/25 00:59:07;;;;;;;80.68;26.30;;;;;;;4.65;100.00;100189.75;5000658;28;20030;-76
2021/12/25 01:01:32;;;;;;;68.90;24.88;;;;;;;4.58;100.00;100184.72;5011253;28;20041;-76
2021/12/25 01:03:58;;;;;;;74.13;26.33;;;;;;;4.55;100.00;100190.34;5008246;28;20046;-76
2021/12/25 01:06:23;;;;;;;72.20;25.25;;;;;;;4.58;100.00;100189.28;4984766;28;20046;-77
2021/12/25 01:08:49;;;;;;;74.47;25.88;;;;;;;4.66;100.00;100195.06;5007419;28;20069;-77
2021/12/25 01:11:15;;;;;;;74.47;26.95;;;;;;;4.59;100.00;100199.13;5012740;28;20155;-77
2021/12/25 01:13:47;;;;;;;75.72;26.98;;;;;;;4.56;100.00;100191.22;5005310;28;20073;-76
2021/12/25 01:16:41;;;;;;;74.35;25.90;;;;;;;4.58;100.00;100205.53;5011293;28;20057;-77
2021/12/25 01:28:39;;;;;;;90.95;30.45;;;;;;;4.59;100.00;100205.44;4963964;28;20039;-77
2021/12/25 01:31:39;;;;;;;96.25;31.60;;;;;;;4.60;100.00;100198.19;4992639;28;20547;-76
2021/12/25 01:34:11;;;;;;;108.43;33.88;;;;;;;4.65;100.00;100197.88;4997021;28;20046;-76
2021/12/25 01:36:47;;;;;;;96.20;32.92;;;;;;;4.57;100.00;100196.53;5006450;28;20045;-76
2021/12/25 01:39:20;;;;;;;98.20;33.28;;;;;;;4.58;100.00;100200.13;5001015;28;20026;-77
2021/12/25 01:49:51;;;;;;;92.28;32.40;;;;;;;4.55;100.00;100206.59;4995303;28;20034;-76
2021/12/25 01:52:19;;;;;;;95.55;33.38;;;;;;;4.54;100.00;100204.88;5000110;28;20377;-76
2021/12/25 01:54:44;;;;;;;98.70;33.65;;;;;;;4.54;100.00;100204.88;5007672;28;20109;-76
2021/12/25 01:57:10;;;;;;;90.35;32.67;;;;;;;4.53;100.00;100208.56;5005556;28;20125;-77
2021/12/25 01:59:35;;;;;;;97.53;33.97;;;;;;;4.49;100.00;100198.84;5011258;28;20479;-76
2021/12/25 02:02:01;;;;;;;94.68;30.75;;;;;;;4.44;100.00;100202.84;4998802;28;20401;-76
2021/12/25 02:04:26;;;;;;;80.43;30.88;;;;;;;4.40;100.00;100207.59;5010379;28;20026;-76
2021/12/25 02:06:52;;;;;;;67.18;27.02;;;;;;;4.40;100.00;100204.88;4996327;28;20034;-76
2021/12/25 02:09:17;;;;;;;58.40;22.20;;;;;;;4.32;100.00;100202.66;4978532;28;20360;-76
2021/12/25 02:11:43;;;;;;;68.32;25.88;;;;;;;4.17;100.00;100198.22;4990013;28;20509;-76
2021/12/25 02:14:09;;;;;;;63.03;23.50;;;;;;;4.23;100.00;100205.94;4990999;28;20081;-76
2021/12/25 02:16:51;;;;;;;63.90;25.20;;;;;;;4.26;100.00;100199.47;5009703;28;20038;-76
2021/12/25 02:19:31;;;;;;;58.47;23.83;;;;;;;4.12;100.00;100209.34;5011757;28;20023;-76
2021/12/25 02:22:00;;;;;;;72.63;26.63;;;;;;;4.18;100.00;100202.66;4982299;28;20042;-76
2021/12/25 02:24:26;;;;;;;67.93;28.55;;;;;;;4.05;100.00;100197.16;5009669;28;20029;-76
2021/12/25 02:26:52;;;;;;;76.80;29.48;;;;;;;4.08;100.00;100198.81;5002062;28;20030;-76
2021/12/25 02:29:17;;;;;;;72.45;29.23;;;;;;;4.00;100.00;100191.16;5013094;28;20489;-76
2021/12/25 02:31:43;;;;;;;72.28;30.35;;;;;;;4.04;100.00;100196.28;5010473;28;20058;-76
2021/12/25 02:34:08;;;;;;;79.53;30.05;;;;;;;3.95;100.00;100198.69;5012912;28;20036;-76
2021/12/25 02:36:34;;;;;;;75.18;30.45;;;;;;;3.87;100.00;100199.19;5010262;28;20058;-76
2021/12/25 02:38:59;;;;;;;73.35;27.58;;;;;;;3.73;100.00;100197.31;5003519;28;20034;-76
2021/12/25 02:41:25;;;;;;;76.75;28.27;;;;;;;3.68;100.00;100202.16;5004513;28;20026;-76
2021/12/25 02:43:50;;;;;;;75.30;29.15;;;;;;;3.61;100.00;100196.25;5013454;28;20232;-76
2021/12/25 02:46:16;;;;;;;71.25;27.58;;;;;;;3.53;100.00;100193.13;5009909;28;20065;-76
2021/12/25 02:48:42;;;;;;;74.00;27.88;;;;;;;3.62;100.00;100199.81;4996883;28;20100;-76
2021/12/25 02:51:10;;;;;;;74.25;27.45;;;;;;;3.63;100.00;100201.56;5020058;28;20030;-76
2021/12/25 02:53:37;;;;;;;83.20;29.27;;;;;;;3.58;100.00;100209.94;5009438;28;20112;-76
2021/12/25 02:56:03;;;;;;;85.03;30.75;;;;;;;3.40;100.00;100211.06;5007113;28;20133;-76
2021/12/25 02:58:28;;;;;;;82.50;31.48;;;;;;;3.40;100.00;100205.66;5009643;28;20105;-76
2021/12/25 03:01:04;;;;;;;88.00;30.52;;;;;;;3.33;100.00;100212.38;5013844;28;20072;-76
2021/12/25 03:03:30;;;;;;;81.18;30.58;;;;;;;3.34;100.00;100214.13;5004475;28;20064;-76
2021/12/25 03:05:55;;;;;;;76.50;30.83;;;;;;;3.20;100.00;100205.00;4996476;28;20029;-76
2021/12/25 03:08:21;;;;;;;79.35;30.45;;;;;;;3.25;100.00;100202.91;4996791;28;20038;-76
2021/12/25 03:10:48;;;;;;;82.32;29.88;;;;;;;3.17;100.00;100213.31;5006896;28;20109;-76
2021/12/25 03:15:48;;;;;;;71.57;27.40;;;;;;;3.19;100.00;100211.38;5003780;28;20478;-76
2021/12/25 03:18:25;;;;;;;67.03;26.70;;;;;;;3.21;100.00;100214.84;4994869;28;20509;-75
2021/12/25 03:20:55;;;;;;;60.72;25.55;;;;;;;3.07;100.00;100215.66;4995150;28;20034;-76
2021/12/25 03:23:24;;;;;;;69.68;26.92;;;;;;;3.05;100.00;100214.91;4995774;28;20489;-76
2021/12/25 03:25:51;;;;;;;66.07;26.55;;;;;;;3.04;100.00;100223.09;4994696;28;20045;-76
2021/12/25 03:28:18;;;;;;;62.03;25.13;;;;;;;3.04;100.00;100226.66;5003162;28;20050;-76
2021/12/25 03:30:45;;;;;;;63.10;26.75;;;;;;;3.05;100.00;100224.81;5006062;28;20050;-76
2021/12/25 03:33:15;;;;;;;66.05;25.13;;;;;;;2.96;100.00;100225.38;4999026;28;20054;-76
2021/12/25 03:35:42;;;;;;;64.40;26.25;;;;;;;2.89;100.00;100224.84;4993826;28;20030;-76
2021/12/25 03:38:11;;;;;;;67.90;27.70;;;;;;;2.85;100.00;100236.78;4998714;28;20037;-76
2021/12/25 03:40:37;;;;;;;62.47;25.63;;;;;;;2.80;100.00;100228.06;5013586;28;20025;-76
2021/12/25 03:43:04;;;;;;;60.45;25.65;;;;;;;2.78;100.00;100230.00;5012195;28;20425;-76
2021/12/25 03:45:31;;;;;;;57.45;25.40;;;;;;;2.71;100.00;100229.47;4996393;28;20038;-75
2021/12/25 03:48:28;;;;;;;57.72;24.75;;;;;;;2.67;100.00;100228.78;5004413;28;20068;-76
2021/12/25 03:59:01;;;;;;;61.75;28.65;;;;;;;2.58;100.00;100240.97;5004448;28;20398;-76
2021/12/25 04:01:33;;;;;;;66.68;28.40;;;;;;;2.49;100.00;100240.59;4995782;28;20038;-76
2021/12/25 04:04:26;;;;;;;62.67;25.50;;;;;;;2.39;100.00;100246.53;4992958;28;20023;-77
2021/12/25 04:07:15;;;;;;;66.60;27.27;;;;;;;2.36;100.00;100246.72;4996162;28;20042;-76
2021/12/25 04:09:41;;;;;;;68.75;29.23;;;;;;;2.34;100.00;100251.28;5008929;28;20545;-77
2021/12/25 04:12:11;;;;;;;72.43;29.88;;;;;;;2.30;100.00;100243.47;4994178;28;20038;-77
2021/12/25 04:14:37;;;;;;;70.82;30.30;;;;;;;2.27;100.00;100262.53;5000481;28;20030;-76
2021/12/25 04:17:03;;;;;;;69.60;28.98;;;;;;;2.24;100.00;100251.91;5001845;28;20096;-76
2021/12/25 04:19:28;;;;;;;73.50;31.20;;;;;;;2.20;100.00;100245.81;4992930;28;20501;-77
2021/12/25 04:24:20;;;;;;;57.50;25.42;;;;;;;2.27;100.00;100247.19;5024237;28;20035;-76
2021/12/25 04:26:47;;;;;;;58.78;26.88;;;;;;;2.28;100.00;100265.16;5006605;28;20054;-77
2021/12/25 04:29:32;;;;;;;65.70;27.38;;;;;;;2.16;100.00;100263.97;4997622;28;20185;-77
2021/12/25 05:04:17;;;;;;;64.93;27.65;;;;;;;1.72;100.00;100296.91;5001605;28;20490;-77
2021/12/25 05:06:43;;;;;;;68.22;27.60;;;;;;;1.69;100.00;100291.69;5004096;28;20093;-76
2021/12/25 05:09:08;;;;;;;70.95;26.85;;;;;;;1.67;100.00;100304.34;5008526;28;20466;-77
2021/12/25 05:11:34;;;;;;;67.80;26.90;;;;;;;1.67;100.00;100293.56;5009187;28;20043;-77
2021/12/25 05:13:59;;;;;;;70.78;27.98;;;;;;;1.67;100.00;100311.56;5009193;28;20089;-77
2021/12/25 05:16:26;;;;;;;65.70;27.02;;;;;;;1.54;100.00;100308.63;5002541;28;20031;-77
2021/12/25 05:18:52;;;;;;;65.82;25.85;;;;;;;1.57;100.00;100314.72;5003466;28;20494;-76
2021/12/25 05:21:18;;;;;;;63.95;26.17;;;;;;;1.37;100.00;100310.34;5009137;28;20106;-76
2021/12/25 05:23:44;;;;;;;70.72;28.13;;;;;;;1.46;100.00;100306.34;4998614;28;20509;-76
2021/12/25 05:26:10;;;;;;;68.53;27.38;;;;;;;1.40;100.00;100303.94;5008080;28;20393;-76
2021/12/25 05:28:41;;;;;;;62.40;25.88;;;;;;;1.35;100.00;100312.25;5006014;28;20070;-76
2021/12/25 05:31:11;;;;;;;62.58;24.17;;;;;;;1.34;100.00;100309.63;4999972;28;20046;-77
2021/12/25 05:33:37;;;;;;;60.50;24.92;;;;;;;1.18;100.00;100313.09;5007882;28;20044;-76
2021/12/25 05:36:04;;;;;;;67.88;25.83;;;;;;;1.14;100.00;100324.97;4995759;28;20133;-76
2021/12/25 05:38:30;;;;;;;59.35;23.80;;;;;;;1.00;100.00;100316.66;4997809;28;20100;-77
2021/12/25 05:40:55;;;;;;;62.53;25.10;;;;;;;0.97;100.00;100320.41;5014026;28;20449;-76
2021/12/25 05:43:21;;;;;;;67.18;25.33;;;;;;;0.85;100.00;100329.06;5013018;28;20088;-77
2021/12/25 05:45:47;;;;;;;64.15;25.35;;;;;;;0.80;100.00;100331.09;5003195;28;20085;-77
2021/12/25 05:48:13;;;;;;;56.13;21.77;;;;;;;0.81;100.00;100336.41;5001087;28;20034;-76
2021/12/25 05:50:38;;;;;;;65.43;24.38;;;;;;;0.65;100.00;100321.91;5005459;28;20026;-76
2021/12/25 05:53:05;;;;;;;76.32;26.40;;;;;;;0.76;100.00;100332.22;5012205;28;20033;-76
2021/12/25 05:55:32;;;;;;;45.58;16.27;;;;;;;0.79;100.00;100332.03;5005273;28;20033;-76
2021/12/25 05:57:58;;;;;;;78.78;25.30;;;;;;;0.80;100.00;100339.19;5014729;28;20026;-77
2021/12/25 06:00:24;;;;;;;65.80;25.52;;;;;;;0.65;100.00;100336.25;5010934;28;20040;-77
2021/12/25 06:02:51;;;;;;;62.35;25.35;;;;;;;0.64;100.00;100350.69;4985954;28;20041;-77
2021/12/25 06:05:18;;;;;;;71.78;25.55;;;;;;;0.58;100.00;100340.19;5006215;28;20482;-77
2021/12/25 06:07:44;;;;;;;65.70;24.30;;;;;;;0.65;100.00;100348.88;4996764;28;20037;-77
2021/12/25 06:10:10;;;;;;;62.83;25.13;;;;;;;0.58;100.00;100348.28;4995805;28;20034;-77
2021/12/25 06:12:37;;;;;;;77.03;26.42;;;;;;;0.51;100.00;100355.75;5012145;28;20092;-76
2021/12/25 06:15:09;;;;;;;74.88;25.63;;;;;;;0.55;100.00;100353.78;4997324;28;20046;-76
2021/12/25 06:17:35;;;;;;;67.78;24.10;;;;;;;0.49;100.00;100349.56;5015499;28;20504;-77
2021/12/25 06:20:00;;;;;;;52.97;20.73;;;;;;;0.59;100.00;100355.41;5012838;28;20031;-77
2021/12/25 06:22:26;;;;;;;73.05;25.25;;;;;;;0.54;100.00;100360.13;5005039;28;20496;-77
2021/12/25 06:24:53;;;;;;;78.47;24.48;;;;;;;0.50;100.00;100350.44;5011877;28;20510;-77
2021/12/25 06:27:20;;;;;;;70.75;24.65;;;;;;;0.46;100.00;100363.19;5009088;28;20058;-77
2021/12/25 06:29:46;;;;;;;60.63;21.60;;;;;;;0.44;100.00;100362.34;5006107;28;20038;-76
2021/12/25 06:32:12;;;;;;;71.82;23.88;;;;;;;0.44;100.00;100367.75;4995944;28;20062;-77
2021/12/25 06:34:38;;;;;;;61.40;23.13;;;;;;;0.48;100.00;100369.38;4997740;28;20034;-77
2021/12/25 06:37:04;;;;;;;64.03;24.00;;;;;;;0.43;100.00;100371.41;5006071;28;20042;-77
2021/12/25 06:39:30;;;;;;;67.20;23.90;;;;;;;0.42;100.00;100371.47;4997363;28;20026;-76
2021/12/25 06:41:56;;;;;;;57.10;21.52;;;;;;;0.55;100.00;100376.22;4991961;28;20394;-77
2021/12/25 06:44:24;;;;;;;67.30;22.73;;;;;;;0.58;100.00;100371.66;4998602;28;20034;-76
2021/12/25 06:46:51;;;;;;;59.75;20.48;;;;;;;0.62;100.00;100376.81;5011015;28;20034;-77
2021/12/25 06:49:17;;;;;;;62.35;23.48;;;;;;;0.54;100.00;100374.47;4997571;28;20038;-77
2021/12/25 06:51:42;;;;;;;70.68;24.77;;;;;;;0.51;100.00;100373.75;5004784;28;20049;-77
2021/12/25 06:54:07;;;;;;;58.67;22.00;;;;;;;0.50;100.00;100388.16;4995383;28;20389;-77
2021/12/25 06:56:33;;;;;;;51.28;19.40;;;;;;;0.51;100.00;100380.00;5011208;28;20034;-77
2021/12/25 06:58:58;;;;;;;58.90;22.23;;;;;;;0.46;100.00;100387.41;4997145;28;20085;-77
2021/12/25 07:01:24;;;;;;;56.47;20.38;;;;;;;0.40;100.00;100386.81;5009239;28;20049;-77
2021/12/25 07:03:50;;;;;;;62.88;22.08;;;;;;;0.46;100.00;100400.88;4999938;28;20545;-77
2021/12/25 07:06:16;;;;;;;51.03;20.52;;;;;;;0.38;100.00;100399.44;4999791;28;20041;-77
2021/12/25 07:08:41;;;;;;;66.30;22.58;;;;;;;0.43;100.00;100406.41;5006202;28;20038;-77
2021/12/25 07:11:06;;;;;;;59.20;21.65;;;;;;;0.35;100.00;100403.19;5004464;28;20042;-77
2021/12/25 07:13:32;;;;;;;57.65;22.02;;;;;;;0.30;100.00;100405.19;5012229;28;20049;-77
2021/12/25 07:15:57;;;;;;;56.88;21.30;;;;;;;0.18;100.00;100415.56;4996662;28;20085;-77
2021/12/25 07:18:23;;;;;;;58.20;22.23;;;;;;;0.13;100.00;100414.88;5005944;28;20064;-77
2021/12/25 07:20:50;;;;;;;52.05;19.35;;;;;;;0.12;100.00;100407.75;5005105;28;20113;-76
2021/12/25 07:23:16;;;;;;;42.38;17.40;;;;;;;0.23;100.00;100414.47;5000830;28;20046;-77
2021/12/25 07:25:42;;;;;;;39.78;16.70;;;;;;;0.15;100.00;100421.06;5004278;28;20450;-77
2021/12/25 07:28:08;;;;;;;53.97;19.50;;;;;;;0.10;100.00;100414.13;5011164;28;20440;-77
2021/12/25 07:30:33;;;;;;;64.32;22.20;;;;;;;0.10;100.00;100423.09;4994358;28;20043;-77
2021/12/25 07:32:59;;;;;;;46.38;19.73;;;;;;;0.08;100.00;100430.38;5000654;28;20073;-77
2021/12/25 07:35:25;;;;;;;42.63;17.38;;;;;;;0.06;100.00;100426.84;5003742;28;20449;-77
2021/12/25 07:37:52;;;;;;;60.25;21.02;;;;;;;0.03;100.00;100431.47;5002646;28;20084;-77
2021/12/25 07:40:17;;;;;;;46.40;19.52;;;;;;;-0.01;100.00;100438.81;4997096;28;20026;-77
2021/12/25 07:42:44;;;;;;;46.15;18.20;;;;;;;-0.07;100.00;100436.38;4990978;28;20038;-77
2021/12/25 07:45:11;;;;;;;52.35;18.17;;;;;;;-0.02;100.00;100434.38;5004157;28;20076;-78
2021/12/25 07:47:40;;;;;;;45.80;18.02;;;;;;;-0.10;100.00;100428.44;5014367;28;20123;-78
2021/12/25 07:50:07;;;;;;;48.08;19.33;;;;;;;-0.05;100.00;100434.50;4997603;28;20034;-77
2021/12/25 07:52:33;;;;;;;49.42;18.67;;;;;;;-0.12;100.00;100430.31;4997038;28;20026;-78
2021/12/25 07:54:58;;;;;;;48.50;18.42;;;;;;;-0.07;100.00;100441.75;4998663;28;20031;-77
2021/12/25 07:57:24;;;;;;;48.63;18.63;;;;;;;-0.10;100.00;100428.44;5001267;28;20038;-77
2021/12/25 07:59:50;;;;;;;45.65;18.50;;;;;;;-0.04;100.00;100433.56;5010900;28;20041;-77
2021/12/25 08:02:15;;;;;;;38.40;16.27;;;;;;;-0.04;100.00;100438.94;5013756;28;20034;-78
2021/12/25 08:04:41;;;;;;;44.55;17.23;;;;;;;-0.06;100.00;100439.00;5004568;28;20394;-77
2021/12/25 08:07:06;;;;;;;41.20;17.63;;;;;;;-0.09;100.00;100422.97;5016294;28;20076;-77
2021/12/25 08:09:32;;;;;;;37.08;14.85;;;;;;;-0.08;100.00;100451.66;5011976;28;20102;-77
2021/12/25 08:12:02;;;;;;;34.05;15.73;;;;;;;-0.15;100.00;100457.34;5004216;28;20037;-77
2021/12/25 08:14:29;;;;;;;39.78;16.83;;;;;;;-0.17;100.00;100448.47;4998734;28;20034;-77
2021/12/25 08:16:56;;;;;;;37.65;16.75;;;;;;;-0.08;100.00;100450.75;5000561;28;20050;-77
2021/12/25 08:19:22;;;;;;;30.25;13.32;;;;;;;-0.07;100.00;100447.13;5002265;28;20053;-77
2021/12/25 08:21:48;;;;;;;33.55;14.18;;;;;;;-0.12;100.00;100463.47;5010472;28;20029;-77
2021/12/25 08:24:15;;;;;;;41.40;14.48;;;;;;;-0.13;100.00;100467.13;5016326;28;20030;-76
2021/12/25 08:26:41;;;;;;;40.08;17.27;;;;;;;-0.12;100.00;100463.47;4992422;28;20034;-77
2021/12/25 08:29:07;;;;;;;39.20;17.23;;;;;;;-0.12;100.00;100471.53;4997950;28;20160;-76
2021/12/25 08:31:34;;;;;;;41.42;17.33;;;;;;;-0.12;100.00;100471.53;4999984;28;20109;-77
2021/12/25 08:33:59;;;;;;;38.10;16.25;;;;;;;-0.15;100.00;100471.66;4998815;28;20034;-77
2021/12/25 08:36:25;;;;;;;39.95;16.98;;;;;;;-0.19;100.00;100473.59;5013844;28;20046;-77
2021/12/25 08:38:50;;;;;;;60.28;25.92;;;;;;;-0.13;100.00;100482.38;5014181;28;20026;-78
2021/12/25 08:41:16;;;;;;;25.67;11.75;;;;;;;-0.08;100.00;100483.03;5005950;28;20033;-77
2021/12/25 08:43:49;;;;;;;38.28;15.75;;;;;;;-0.26;100.00;100469.44;4996448;28;20029;-77
2021/12/25 08:46:35;;;;;;;36.15;16.70;;;;;;;-0.14;100.00;100494.09;4990735;28;20025;-76
2021/12/25 08:49:00;;;;;;;32.55;14.73;;;;;;;-0.09;100.00;100498.31;5010216;28;20030;-76
2021/12/25 08:51:26;;;;;;;31.95;14.25;;;;;;;-0.14;100.00;100497.63;4995872;28;20045;-77
2021/12/25 08:53:51;;;;;;;38.53;16.40;;;;;;;-0.11;100.00;100502.91;5001386;28;20040;-76
2021/12/25 08:56:17;;;;;;;31.95;15.07;;;;;;;-0.06;100.00;100508.97;5009468;28;20053;-77
2021/12/25 08:58:42;;;;;;;33.90;15.15;;;;;;;-0.16;100.00;100506.69;5001066;28;20362;-77
2021/12/25 09:01:09;;;;;;;35.60;15.75;;;;;;;-0.20;100.00;100503.25;4994506;28;20034;-77
2021/12/25 09:03:34;;;;;;;26.42;12.90;;;;;;;-0.13;100.00;100514.66;5001155;28;20097;-77
2021/12/25 09:06:01;;;;;;;28.55;13.10;;;;;;;-0.19;100.00;100511.28;4996472;28;20121;-77
2021/12/25 09:08:27;;;;;;;30.58;12.77;;;;;;;-0.21;100.00;100517.66;5003544;28;20386;-77
2021/12/25 09:10:53;;;;;;;29.13;13.48;;;;;;;-0.24;100.00;100518.66;4996332;28;20034;-77
2021/12/25 09:13:19;;;;;;;28.15;13.23;;;;;;;-0.20;100.00;100517.59;4999446;28;20068;-77
2021/12/25 09:15:44;;;;;;;29.30;14.52;;;;;;;-0.30;100.00;100526.97;5002005;28;20034;-77
2021/12/25 09:18:09;;;;;;;28.25;12.95;;;;;;;-0.25;100.00;100518.72;5007709;28;20030;-77
2021/12/25 09:20:36;;;;;;;32.42;14.93;;;;;;;-0.31;100.00;100530.59;5010863;28;20034;-77
2021/12/25 09:23:01;;;;;;;30.58;13.02;;;;;;;-0.22;100.00;100526.66;5005291;28;20051;-77
2021/12/25 09:25:27;;;;;;;31.58;14.63;;;;;;;-0.27;100.00;100526.84;5009197;28;20041;-77
2021/12/25 09:27:53;;;;;;;28.83;15.07;;;;;;;-0.37;100.00;100520.09;4977774;28;20469;-77
2021/12/25 09:30:21;;;;;;;40.42;15.15;;;;;;;-0.34;100.00;100538.78;4995161;28;20038;-77
2021/12/25 09:32:47;;;;;;;27.15;13.98;;;;;;;-0.20;100.00;100547.19;4996963;28;20386;-77
2021/12/25 09:35:12;;;;;;;32.33;14.75;;;;;;;-0.33;100.00;100534.28;5008254;28;20054;-77
2021/12/25 09:37:38;;;;;;;23.13;10.00;;;;;;;-0.13;100.00;100537.06;5012107;28;20033;-77
2021/12/25 09:40:07;;;;;;;26.50;14.45;;;;;;;-0.19;100.00;100538.19;5007280;28;20453;-77
2021/12/25 09:42:33;;;;;;;27.73;12.95;;;;;;;-0.27;100.00;100542.13;5000290;28;20045;-77
2021/12/25 09:44:59;;;;;;;33.63;13.70;;;;;;;-0.27;100.00;100540.28;4993396;28;20034;-77
2021/12/25 09:47:24;;;;;;;24.60;12.90;;;;;;;-0.26;100.00;100536.69;5001456;28;20129;-76
2021/12/25 09:49:50;;;;;;;24.27;11.68;;;;;;;-0.23;100.00;100528.50;4996471;28;20022;-77
2021/12/25 09:52:16;;;;;;;26.27;13.60;;;;;;;-0.34;100.00;100527.13;5009986;28;20097;-76
2021/12/25 09:54:41;;;;;;;28.10;13.10;;;;;;;-0.27;100.00;100516.09;5010482;28;20488;-77
2021/12/25 09:57:07;;;;;;;28.30;12.48;;;;;;;-0.31;100.00;100529.72;4994465;28;20061;-76
2021/12/25 09:59:33;;;;;;;29.42;13.25;;;;;;;-0.21;100.00;100531.13;5003288;28;20033;-77
2021/12/25 10:02:00;;;;;;;28.80;13.55;;;;;;;-0.32;100.00;100530.66;5012714;28;20034;-77
2021/12/25 10:04:50;;;;;;;81.20;30.00;;;;;;;-0.26;100.00;100528.59;5001247;28;20454;-77
2021/12/25 10:07:18;;;;;;;25.77;12.75;;;;;;;-0.32;100.00;100536.03;5011510;28;20436;-76
2021/12/25 10:09:59;;;;;;;22.45;12.23;;;;;;;-0.29;100.00;100534.09;4992736;28;20080;-76
2021/12/25 10:12:42;;;;;;;16.45;9.27;;;;;;;-0.28;100.00;100537.66;4999074;28;20043;-76
2021/12/25 10:15:11;;;;;;;20.10;10.27;;;;;;;-0.18;100.00;100547.16;4998071;28;20038;-76
2021/12/25 10:17:45;;;;;;;21.88;10.43;;;;;;;-0.20;100.00;100549.00;5014781;28;20481;-76
2021/12/25 10:20:22;;;;;;;24.77;10.75;;;;;;;-0.28;100.00;100549.31;5012981;28;20084;-76
2021/12/25 10:23:00;;;;;;;20.77;10.73;;;;;;;-0.25;100.00;100556.38;5011476;28;20042;-76
2021/12/25 10:25:32;;;;;;;20.33;10.80;;;;;;;-0.35;100.00;100555.00;5011241;28;20026;-76
2021/12/25 10:28:06;;;;;;;20.10;10.02;;;;;;;-0.33;100.00;100559.34;4997231;28;20034;-76
2021/12/25 10:30:43;;;;;;;14.57;7.88;;;;;;;-0.31;100.00;100568.25;4996033;28;20026;-76
2021/12/25 10:33:26;;;;;;;19.00;8.43;;;;;;;-0.27;100.00;100569.88;4996457;28;20045;-76
2021/12/25 10:35:52;;;;;;;10.05;6.20;;;;;;;-0.37;100.00;100566.66;4994890;28;20129;-76
2021/12/25 10:38:18;;;;;;;14.45;7.88;;;;;;;-0.41;100.00;100569.53;4990046;28;20505;-76
2021/12/25 10:40:44;;;;;;;11.52;7.15;;;;;;;-0.47;100.00;100577.84;5006848;28;20157;-77
2021/12/25 10:43:20;;;;;;;12.05;7.13;;;;;;;-0.60;100.00;100580.13;5011015;28;20042;-77
2021/12/25 10:46:02;;;;;;;23.38;7.97;;;;;;;-0.60;100.00;100567.56;4998503;28;20501;-77
2021/12/25 10:48:30;;;;;;;14.40;7.55;;;;;;;-0.61;100.00;100581.94;4996087;28;20062;-77
2021/12/25 10:50:57;;;;;;;13.40;7.72;;;;;;;-0.61;100.00;100575.66;4992228;28;20083;-77
2021/12/25 10:53:25;;;;;;;19.83;8.38;;;;;;;-0.75;100.00;100566.31;5024339;28;20111;-77
2021/12/25 10:55:53;;;;;;;13.68;7.15;;;;;;;-0.73;100.00;100574.31;5003051;28;20500;-77
2021/12/25 10:58:23;;;;;;;16.23;7.53;;;;;;;-0.77;100.00;100583.41;4996262;28;20069;-77
2021/12/25 11:00:57;;;;;;;15.00;5.68;;;;;;;-0.79;100.00;100566.47;5002627;28;20390;-77
2021/12/25 11:03:30;;;;;;;11.20;5.55;;;;;;;-0.78;100.00;100562.88;5011854;28;20042;-77
2021/12/25 11:06:08;;;;;;;8.80;5.13;;;;;;;-0.78;100.00;100570.94;5009512;28;20057;-77
2021/12/25 11:08:35;;;;;;;10.68;5.22;;;;;;;-0.86;100.00;100560.47;5002833;28;20136;-76
2021/12/25 11:11:06;;;;;;;7.90;4.90;;;;;;;-0.91;100.00;100564.25;4996279;28;20046;-76
2021/12/25 11:13:31;;;;;;;8.68;4.05;;;;;;;-0.85;100.00;100551.47;4995898;28;20030;-77
2021/12/25 11:16:05;;;;;;;8.70;5.10;;;;;;;-0.97;100.00;100551.91;4978024;28;20057;-76
2021/12/25 11:18:47;;;;;;;9.50;4.93;;;;;;;-0.89;100.00;100546.25;5005867;28;20030;-77
2021/12/25 11:21:12;;;;;;;8.10;4.77;;;;;;;-0.99;100.00;100541.22;4996631;28;20080;-77
2021/12/25 11:23:38;;;;;;;9.27;4.50;;;;;;;-0.90;100.00;100539.13;4996283;28;20038;-77
2021/12/25 11:26:03;;;;;;;9.18;4.45;;;;;;;-0.98;100.00;100553.72;5008383;28;20038;-77
2021/12/25 11:28:29;;;;;;;8.32;4.22;;;;;;;-0.94;100.00;100547.28;5001754;28;20482;-77
2021/12/25 11:30:55;;;;;;;9.38;4.95;;;;;;;-0.86;100.00;100549.72;4994008;28;20050;-77
2021/12/25 11:33:20;;;;;;;11.30;4.22;;;;;;;-0.86;100.00;100549.72;5001667;28;20497;-77
2021/12/25 11:35:46;;;;;;;5.07;3.55;;;;;;;-0.73;100.00;100547.44;5014949;28;20030;-77
2021/12/25 11:38:11;;;;;;;9.45;4.13;;;;;;;-0.69;100.00;100545.50;4997662;28;20030;-77
2021/12/25 11:40:43;;;;;;;5.53;3.17;;;;;;;-0.67;100.00;100551.69;5010336;28;20779;-78
2021/12/25 11:43:08;;;;;;;7.97;3.72;;;;;;;-0.58;100.00;100556.75;5011105;28;20512;-78
2021/12/25 11:45:40;;;;;;;5.88;3.20;;;;;;;-0.67;100.00;100546.31;5008936;28;20050;-78
2021/12/25 11:48:18;;;;;;;8.00;3.30;;;;;;;-0.67;100.00;100552.59;4994652;28;20553;-78
2021/12/25 11:50:47;;;;;;;12.98;4.80;;;;;;;-0.66;100.00;100565.09;4997586;28;20035;-78
2021/12/25 11:53:22;;;;;;;8.15;3.80;;;;;;;-0.62;100.00;100569.44;4998160;28;20040;-78
2021/12/25 11:56:48;;;;;;;5.53;3.30;;;;;;;-0.56;100.00;100576.38;5014950;28;20104;-77
2021/12/25 11:58:52;;;;;;;7.32;3.53;;;;;;;-0.51;100.00;100577.06;5003073;28;20045;-76
2021/12/25 12:01:25;;;;;;;12.50;5.32;;;;;;;-0.46;100.00;100569.75;4979173;28;20039;-77
2021/12/25 12:03:56;;;;;;;4.22;2.83;;;;;;;-0.51;100.00;100563.63;5005158;28;20133;-77
2021/12/25 12:06:46;;;;;;;8.20;4.68;;;;;;;-0.48;100.00;100565.34;5007190;28;20049;-77
2021/12/25 12:09:25;;;;;;;9.63;3.88;;;;;;;-0.47;100.00;100551.84;4986354;28;20034;-77
2021/12/25 12:12:16;;;;;;;5.45;3.65;;;;;;;-0.51;100.00;100557.38;4986720;28;20045;-77
2021/12/25 12:14:42;;;;;;;4.70;3.00;;;;;;;-0.52;100.00;100547.59;5007107;28;20481;-76
2021/12/25 12:17:24;;;;;;;7.70;3.17;;;;;;;-0.46;100.00;100545.53;4995525;28;20069;-77
2021/12/25 12:19:53;;;;;;;6.38;3.35;;;;;;;-0.51;100.00;100538.56;4994366;28;20032;-77